Time;durP1;ratioP1;P1;durP2;ratioP2;P2;SDS_P1;SDS_P2;PMS_P1;PMS_P2;Temp;Humidity;BMP_temperature;BMP_pressure;BME280_temperature;BME280_humidity;BME280_pressure;Samples;Min_cycle;Max_cycle;Signal;HPM_P1;HPM_P2
2022/03/09 00:00:15;;;;;;;12.95;7.32;;;;;;;4.74;39.03;101290.69;4181248;28;20049;-60
2022/03/09 00:02:19;;;;;;;11.40;6.40;;;;;;;4.72;38.62;101289.75;4175910;28;20103;-60
2022/03/09 00:04:24;;;;;;;10.55;6.60;;;;;;;4.73;38.82;101286.34;4177577;28;20052;-60
2022/03/09 00:06:27;;;;;;;13.23;6.85;;;;;;;4.68;39.05;101290.38;4182227;28;20103;-62
2022/03/09 00:08:30;;;;;;;10.85;6.78;;;;;;;4.68;38.86;101287.81;4180834;28;20410;-60
2022/03/09 00:10:32;;;;;;;9.95;6.70;;;;;;;4.70;39.14;101291.34;4181157;28;20047;-60
2022/03/09 00:12:36;;;;;;;8.98;5.97;;;;;;;4.71;38.95;101299.13;4180234;28;20045;-60
2022/03/09 00:14:39;;;;;;;10.13;6.43;;;;;;;4.69;38.83;101295.63;4180813;28;20045;-61
2022/03/09 00:16:41;;;;;;;10.95;6.78;;;;;;;4.70;39.02;101291.34;4179897;28;20052;-60
2022/03/09 00:18:45;;;;;;;10.40;6.32;;;;;;;4.68;38.84;101298.13;4180639;28;20037;-61
2022/03/09 00:20:49;;;;;;;11.15;6.32;;;;;;;4.68;39.06;101298.97;4180828;28;20044;-60
2022/03/09 00:22:51;;;;;;;10.00;5.90;;;;;;;4.63;39.13;101304.69;4180064;28;20051;-61
2022/03/09 00:24:54;;;;;;;11.07;7.35;;;;;;;4.59;39.25;101297.66;4180898;28;20045;-61
2022/03/09 00:26:57;;;;;;;12.15;7.47;;;;;;;4.60;39.51;101299.41;4179431;28;20107;-60
2022/03/09 00:28:59;;;;;;;10.80;6.97;;;;;;;4.57;39.40;101302.72;4180024;28;20108;-61
2022/03/09 00:31:03;;;;;;;10.32;5.97;;;;;;;4.55;39.35;101289.72;4171376;28;20163;-60
2022/03/09 00:33:07;;;;;;;13.85;6.75;;;;;;;4.55;38.98;101289.72;4178011;28;20075;-61
2022/03/09 00:35:10;;;;;;;12.95;6.45;;;;;;;4.55;39.05;101289.72;4180436;28;20395;-61
2022/03/09 00:37:15;;;;;;;10.10;6.40;;;;;;;4.59;39.64;101283.06;4163057;28;20048;-61
2022/03/09 00:39:18;;;;;;;12.02;6.68;;;;;;;4.52;39.75;101291.28;4180704;28;20304;-60
2022/03/09 00:41:21;;;;;;;10.73;6.97;;;;;;;4.46;40.31;101296.13;4156124;28;20065;-62
2022/03/09 00:43:24;;;;;;;10.45;6.80;;;;;;;4.38;39.19;101293.16;4177284;28;20467;-61
2022/03/09 00:45:27;;;;;;;10.25;6.32;;;;;;;4.34;39.09;101298.94;4180384;28;20091;-61
2022/03/09 00:47:30;;;;;;;10.57;6.65;;;;;;;4.34;39.21;101293.78;4180420;28;20037;-61
2022/03/09 00:49:33;;;;;;;14.10;6.25;;;;;;;4.34;39.36;101294.66;4180124;28;20056;-61
2022/03/09 00:51:36;;;;;;;11.50;6.63;;;;;;;4.39;39.21;101294.91;4180575;28;20470;-61
2022/03/09 00:53:40;;;;;;;11.18;6.93;;;;;;;4.40;39.21;101299.25;4179444;28;20045;-61
2022/03/09 00:55:43;;;;;;;10.60;6.72;;;;;;;4.38;39.67;101293.16;4179540;28;20414;-61
2022/03/09 00:57:46;;;;;;;16.40;10.15;;;;;;;4.39;40.17;101297.47;4180402;28;20082;-61
2022/03/09 00:59:48;;;;;;;28.80;17.73;;;;;;;4.32;39.63;101297.94;4179793;28;20047;-61
2022/03/09 01:01:51;;;;;;;31.13;17.13;;;;;;;4.34;39.47;101293.78;4180027;28;20044;-61
2022/03/09 01:03:54;;;;;;;22.35;12.40;;;;;;;4.34;40.02;101296.34;4178564;28;20049;-61
2022/03/09 01:05:57;;;;;;;18.05;10.68;;;;;;;4.33;39.65;101292.00;4180122;28;20051;-61
2022/03/09 01:08:01;;;;;;;15.73;9.07;;;;;;;4.34;39.79;101293.78;4180258;28;20044;-61
2022/03/09 01:10:06;;;;;;;14.95;9.25;;;;;;;4.31;39.82;101286.78;4180310;28;20103;-61
2022/03/09 01:12:09;;;;;;;14.00;7.63;;;;;;;4.30;39.36;101294.41;4160628;28;20519;-61
2022/03/09 01:14:12;;;;;;;22.55;9.10;;;;;;;4.24;39.66;101288.94;4180304;28;20064;-61
2022/03/09 01:16:14;;;;;;;11.88;7.75;;;;;;;4.20;40.35;101295.59;4180115;28;20040;-61
2022/03/09 01:18:19;;;;;;;;;;;;;;;3.92;40.27;101285.53;4179278;28;20052;-61
2022/03/09 01:20:22;;;;;;;12.85;7.25;;;;;;;3.88;40.46;101289.59;4180144;28;19921;-62
2022/03/09 01:22:25;;;;;;;12.02;6.90;;;;;;;3.87;40.78;101286.94;4179334;28;20045;-61
2022/03/09 01:24:28;;;;;;;13.02;7.97;;;;;;;3.83;40.88;101281.63;4180296;28;20068;-61
2022/03/09 01:26:32;;;;;;;10.27;6.07;;;;;;;3.80;41.46;101285.75;4179220;28;20498;-61
2022/03/09 01:28:35;;;;;;;9.13;6.60;;;;;;;3.72;42.56;101282.72;4176060;28;20037;-61
2022/03/09 01:30:37;;;;;;;9.68;6.32;;;;;;;3.65;42.46;101280.63;4178735;28;20346;-61
2022/03/09 01:32:40;;;;;;;10.73;6.88;;;;;;;3.33;42.53;101292.56;4177730;28;20040;-61
2022/03/09 01:34:43;;;;;;;10.98;6.22;;;;;;;3.19;42.88;101289.19;4179990;28;20044;-61
2022/03/09 01:36:46;;;;;;;10.00;7.00;;;;;;;3.07;42.89;101289.38;4180222;28;20114;-61
2022/03/09 01:38:48;;;;;;;11.73;6.20;;;;;;;3.18;43.09;101287.41;4180216;28;20048;-61
2022/03/09 01:40:51;;;;;;;11.13;6.15;;;;;;;3.37;42.76;101279.06;4178382;28;20491;-61
2022/03/09 01:42:56;;;;;;;14.10;6.95;;;;;;;3.47;42.14;101276.22;4178958;28;20048;-61
2022/03/09 01:45:01;;;;;;;11.98;7.07;;;;;;;3.53;42.12;101278.25;4179832;28;20502;-60
2022/03/09 01:47:05;;;;;;;12.18;6.85;;;;;;;3.52;42.84;101273.03;4174187;28;20124;-60
2022/03/09 01:49:09;;;;;;;12.97;7.40;;;;;;;3.49;42.96;101271.19;4174863;28;20041;-61
2022/03/09 01:51:12;;;;;;;10.98;7.22;;;;;;;3.48;43.36;101280.56;4172801;28;20370;-61
2022/03/09 01:53:14;;;;;;;11.57;6.82;;;;;;;3.51;42.90;101273.84;4179065;28;20033;-61
2022/03/09 01:55:17;;;;;;;12.10;6.97;;;;;;;3.47;42.93;101276.22;4180005;28;20041;-61
2022/03/09 01:57:20;;;;;;;10.20;6.60;;;;;;;3.48;43.12;101272.00;4179625;28;20041;-61
2022/03/09 01:59:24;;;;;;;11.40;6.65;;;;;;;3.48;43.12;101275.44;4176613;28;20068;-61
2022/03/09 02:01:27;;;;;;;12.10;7.30;;;;;;;3.42;43.10;101277.66;4177652;28;20068;-61
2022/03/09 02:03:36;;;;;;;11.13;6.75;;;;;;;3.36;43.13;101277.31;4180490;28;20095;-61
2022/03/09 02:05:39;;;;;;;18.20;7.70;;;;;;;3.29;42.22;101276.09;4179946;28;20049;-60
2022/03/09 02:10:02;;;;;;;11.63;6.78;;;;;;;3.24;43.48;101279.19;4175098;28;20457;-61
2022/03/09 02:12:05;;;;;;;9.20;5.80;;;;;;;3.26;42.83;101280.19;4176262;28;20047;-61
2022/03/09 02:14:29;;;;;;;11.43;7.45;;;;;;;3.28;42.87;101278.56;4165000;28;20091;-61
2022/03/09 02:16:32;;;;;;;11.93;6.85;;;;;;;3.26;42.72;101280.19;4178886;28;20155;-61
2022/03/09 02:18:36;;;;;;;12.07;7.22;;;;;;;3.25;42.42;101278.41;4182744;28;20507;-61
2022/03/09 02:20:43;;;;;;;11.02;7.05;;;;;;;3.29;42.42;101277.78;4182540;28;20049;-61
2022/03/09 02:22:53;;;;;;;10.25;7.45;;;;;;;3.24;42.96;101276.63;4164179;28;20045;-61
2022/03/09 02:24:56;;;;;;;11.15;6.10;;;;;;;3.18;42.37;101282.28;4181167;28;20505;-61
2022/03/09 02:26:58;;;;;;;11.48;6.13;;;;;;;3.14;43.32;101281.25;4177140;28;20047;-61
2022/03/09 02:29:01;;;;;;;8.75;5.80;;;;;;;3.09;43.32;101277.50;4164929;28;20435;-61
2022/03/09 02:31:04;;;;;;;11.10;6.25;;;;;;;2.96;43.48;101287.88;4182490;28;20092;-61
2022/03/09 02:33:07;;;;;;;12.60;6.70;;;;;;;2.65;44.10;101288.63;4179008;28;20043;-61
2022/03/09 02:35:10;;;;;;;15.55;7.18;;;;;;;2.53;45.95;101298.19;4181286;28;20411;-61
2022/03/09 02:37:13;;;;;;;16.50;7.53;;;;;;;2.55;46.90;101296.59;4182432;28;20103;-61
2022/03/09 02:39:17;;;;;;;12.40;6.88;;;;;;;2.63;46.22;101297.94;4182727;28;20103;-61
2022/03/09 02:41:20;;;;;;;14.63;8.52;;;;;;;2.58;45.31;101297.63;4180756;28;20043;-61
2022/03/09 02:43:23;;;;;;;12.77;7.82;;;;;;;2.54;45.61;101292.22;4182002;28;20305;-61
2022/03/09 02:45:26;;;;;;;12.27;7.85;;;;;;;2.34;45.74;101296.19;4182220;28;20049;-61
2022/03/09 02:47:28;;;;;;;13.48;7.57;;;;;;;2.36;45.47;101290.31;4180790;28;20044;-61
2022/03/09 02:49:31;;;;;;;14.25;8.10;;;;;;;2.50;45.58;101287.69;4182307;28;20516;-61
2022/03/09 02:51:34;;;;;;;13.80;8.55;;;;;;;2.64;44.54;101275.72;4178717;28;20104;-61
2022/03/09 02:53:36;;;;;;;16.17;8.35;;;;;;;2.71;44.90;101277.84;4181302;28;20399;-61
2022/03/09 02:55:41;;;;;;;15.40;8.65;;;;;;;2.77;44.40;101279.09;4182574;28;20101;-61
2022/03/09 02:57:44;;;;;;;12.93;8.10;;;;;;;2.77;44.58;101276.53;4181114;28;20037;-61
2022/03/09 02:59:49;;;;;;;13.15;8.27;;;;;;;2.50;45.39;101285.13;4182176;28;20041;-62
2022/03/09 03:01:51;;;;;;;15.88;8.77;;;;;;;2.38;45.29;101283.63;4182136;28;20072;-61
2022/03/09 03:03:54;;;;;;;16.00;8.15;;;;;;;2.43;45.52;101282.22;4181507;28;20048;-61
2022/03/09 03:05:57;;;;;;;11.50;7.10;;;;;;;2.49;45.08;101281.69;4181232;28;20426;-61
2022/03/09 03:08:01;;;;;;;16.42;9.38;;;;;;;2.54;45.48;101275.16;4176834;28;20041;-61
2022/03/09 03:10:04;;;;;;;15.50;8.70;;;;;;;2.59;45.56;101278.88;4181664;28;20487;-61
2022/03/09 03:12:09;;;;;;;16.38;8.35;;;;;;;2.60;46.10;101280.66;4180125;28;20041;-61
2022/03/09 03:14:12;;;;;;;13.70;7.35;;;;;;;2.64;45.16;101281.72;4181848;28;20060;-61
2022/03/09 03:16:14;;;;;;;16.48;8.40;;;;;;;2.54;45.56;101285.44;4182226;28;20040;-61
2022/03/09 03:18:18;;;;;;;16.63;9.10;;;;;;;2.51;45.68;101285.25;4175661;28;20518;-61
2022/03/09 03:20:22;;;;;;;14.02;8.30;;;;;;;2.43;45.72;101289.03;4180235;28;20307;-61
2022/03/09 03:22:25;;;;;;;15.88;8.45;;;;;;;2.41;45.67;101282.91;4180980;28;20071;-61
2022/03/09 03:24:28;;;;;;;17.70;8.80;;;;;;;2.37;46.08;101296.38;4163459;28;20112;-61
2022/03/09 03:26:31;;;;;;;20.40;9.77;;;;;;;2.41;46.16;101294.06;4163887;28;20450;-61
2022/03/09 03:28:36;;;;;;;17.90;9.23;;;;;;;2.47;46.16;101295.22;4175546;28;20132;-61
2022/03/09 03:30:38;;;;;;;14.20;9.18;;;;;;;2.48;46.20;101295.31;4162880;28;20123;-61
2022/03/09 03:32:41;;;;;;;18.05;10.35;;;;;;;2.46;46.17;101294.34;4179711;28;20041;-61
2022/03/09 03:34:44;;;;;;;13.75;8.90;;;;;;;2.39;46.30;101295.63;4178943;28;20091;-61
2022/03/09 03:36:47;;;;;;;18.40;9.82;;;;;;;2.36;46.34;101292.88;4174701;28;20099;-61
2022/03/09 03:38:50;;;;;;;17.80;10.00;;;;;;;2.34;46.56;101286.78;4181696;28;20048;-61
2022/03/09 03:40:52;;;;;;;13.73;8.93;;;;;;;2.29;46.79;101292.44;4181628;28;20095;-61
2022/03/09 03:42:55;;;;;;;18.10;8.73;;;;;;;2.26;46.45;101298.25;4179630;28;20221;-61
2022/03/09 03:44:59;;;;;;;12.52;8.13;;;;;;;2.20;46.36;101303.91;4181433;28;20041;-61
2022/03/09 03:47:02;;;;;;;15.63;8.77;;;;;;;2.06;46.80;101304.75;4180198;28;20056;-61
2022/03/09 03:49:05;;;;;;;18.75;9.43;;;;;;;2.12;46.54;101296.50;4177060;28;20491;-60
2022/03/09 03:51:07;;;;;;;16.70;9.00;;;;;;;2.08;46.61;101292.88;4180483;28;20060;-61
2022/03/09 03:53:10;;;;;;;14.50;9.18;;;;;;;2.06;46.80;101292.81;4180436;28;20045;-60
2022/03/09 03:55:14;;;;;;;15.20;8.73;;;;;;;2.09;47.10;101295.53;4181348;28;20099;-61
2022/03/09 03:57:16;;;;;;;13.93;8.95;;;;;;;2.06;46.96;101295.38;4180077;28;20041;-61
2022/03/09 03:59:19;;;;;;;13.00;8.23;;;;;;;1.94;46.79;101298.84;4163425;28;20594;-60
2022/03/09 04:01:23;;;;;;;14.23;8.40;;;;;;;1.90;46.72;101302.91;4181143;28;20037;-61
2022/03/09 04:03:26;;;;;;;15.15;8.85;;;;;;;1.91;46.81;101305.56;4179460;28;20059;-61
2022/03/09 04:05:30;;;;;;;15.93;8.25;;;;;;;1.99;46.96;101303.47;4181170;28;20410;-61
2022/03/09 04:07:35;;;;;;;12.60;8.55;;;;;;;2.12;46.34;101305.13;4181015;28;20125;-61
2022/03/09 04:09:38;;;;;;;13.23;8.35;;;;;;;2.09;46.36;101307.50;4181153;28;20044;-60
2022/03/09 04:11:41;;;;;;;15.52;8.63;;;;;;;2.14;46.58;101312.91;4181042;28;20101;-61
2022/03/09 04:13:44;;;;;;;14.75;8.43;;;;;;;2.19;46.46;101307.28;4180155;28;20037;-61
2022/03/09 04:15:48;;;;;;;13.40;8.60;;;;;;;2.14;46.24;101307.78;4181347;28;20041;-61
2022/03/09 04:17:52;;;;;;;16.65;8.75;;;;;;;2.05;46.35;101313.22;4178143;28;20491;-61
2022/03/09 04:19:54;;;;;;;13.13;7.88;;;;;;;2.02;46.83;101311.34;4172267;28;20133;-61
2022/03/09 04:21:57;;;;;;;15.73;8.75;;;;;;;2.18;46.04;101317.44;4175084;28;20498;-61
2022/03/09 04:24:00;;;;;;;19.27;9.35;;;;;;;1.99;47.08;101316.28;4180468;28;20045;-61
2022/03/09 04:26:06;;;;;;;16.08;9.43;;;;;;;1.96;47.59;101318.66;4163137;28;20101;-61
2022/03/09 04:28:10;;;;;;;14.68;8.88;;;;;;;1.97;46.62;101319.53;4180734;28;20041;-61
2022/03/09 04:30:13;;;;;;;12.65;8.10;;;;;;;1.93;47.11;101326.16;4179400;28;20059;-61
2022/03/09 04:32:16;;;;;;;13.93;7.55;;;;;;;2.00;46.50;101320.63;4179430;28;20072;-61
2022/03/09 04:34:20;;;;;;;14.13;8.15;;;;;;;2.04;46.38;101322.56;4179462;28;20033;-61
2022/03/09 04:36:22;;;;;;;14.32;8.65;;;;;;;2.11;45.94;101317.84;4179844;28;20402;-61
2022/03/09 04:38:25;;;;;;;11.38;8.23;;;;;;;2.04;45.70;101317.44;4180720;28;20041;-61
2022/03/09 04:40:28;;;;;;;14.00;8.77;;;;;;;2.05;46.68;101319.22;4179439;28;20037;-61
2022/03/09 04:42:32;;;;;;;13.57;8.50;;;;;;;1.99;47.09;101321.41;4179748;28;20061;-61
2022/03/09 04:44:35;;;;;;;18.88;8.88;;;;;;;1.93;46.99;101326.16;4181243;28;20325;-61
2022/03/09 04:46:37;;;;;;;14.20;8.07;;;;;;;1.91;46.75;101325.16;4180561;28;20124;-61
2022/03/09 04:48:40;;;;;;;14.20;8.52;;;;;;;1.90;47.25;101318.28;4179753;28;20088;-61
2022/03/09 04:50:46;;;;;;;14.05;8.18;;;;;;;1.94;46.94;101317.66;4169531;28;20033;-61
2022/03/09 04:52:48;;;;;;;15.07;9.07;;;;;;;1.99;46.91;101326.53;4178962;28;20049;-62
2022/03/09 04:54:51;;;;;;;12.52;8.45;;;;;;;1.98;46.92;101319.63;4183083;28;20049;-62
2022/03/09 04:56:54;;;;;;;14.05;8.13;;;;;;;2.00;46.85;101322.28;4177799;28;20099;-61
2022/03/09 04:58:56;;;;;;;17.23;9.75;;;;;;;2.02;47.14;101313.91;4178765;28;20083;-61
2022/03/09 05:00:59;;;;;;;16.33;8.05;;;;;;;2.08;47.29;101311.72;4178905;28;20037;-61
2022/03/09 05:03:02;;;;;;;14.43;8.88;;;;;;;2.06;47.43;101310.75;4180294;28;20048;-61
2022/03/09 05:05:07;;;;;;;17.75;8.13;;;;;;;2.09;47.30;101310.06;4180666;28;20446;-62
2022/03/09 05:07:11;;;;;;;16.38;9.43;;;;;;;2.14;47.22;101307.78;4193351;28;20040;-61
2022/03/09 05:09:14;;;;;;;14.65;8.30;;;;;;;2.16;47.75;101307.09;4177840;28;20037;-62
2022/03/09 05:11:17;;;;;;;18.35;8.70;;;;;;;2.19;47.72;101308.94;4177356;28;20490;-62
2022/03/09 05:13:21;;;;;;;13.13;7.90;;;;;;;2.22;47.79;101311.69;4179421;28;20087;-62
2022/03/09 05:15:23;;;;;;;19.63;9.07;;;;;;;2.25;47.80;101311.91;4180012;28;20095;-62
2022/03/09 05:17:26;;;;;;;13.95;9.45;;;;;;;2.28;47.62;101317.22;4179005;28;20133;-61
2022/03/09 05:19:29;;;;;;;20.80;9.25;;;;;;;2.43;47.45;101327.53;4180137;28;20469;-61
2022/03/09 05:21:31;;;;;;;13.90;8.10;;;;;;;2.40;47.34;101317.94;4178656;28;20041;-61
2022/03/09 05:23:36;;;;;;;12.60;8.60;;;;;;;2.42;47.47;101326.66;4179039;28;20084;-61
2022/03/09 05:25:38;;;;;;;11.68;8.05;;;;;;;2.42;47.66;101329.22;4177632;28;20462;-62
2022/03/09 05:27:42;;;;;;;14.85;8.57;;;;;;;2.44;47.64;101332.75;4162055;28;20049;-61
2022/03/09 05:29:44;;;;;;;13.35;8.25;;;;;;;2.40;47.81;101330.78;4180908;28;20052;-61
2022/03/09 05:31:47;;;;;;;15.10;8.30;;;;;;;2.34;48.05;101332.97;4179423;28;20549;-61
2022/03/09 05:33:50;;;;;;;13.10;8.88;;;;;;;2.23;48.34;101328.84;4161345;28;20088;-61
2022/03/09 05:35:53;;;;;;;13.82;8.38;;;;;;;2.21;48.24;101340.72;4176858;28;20051;-62
2022/03/09 05:37:55;;;;;;;15.02;8.65;;;;;;;2.15;48.35;101340.34;4180163;28;20045;-62
2022/03/09 05:40:00;;;;;;;12.93;8.02;;;;;;;2.08;48.13;101344.19;4180158;28;20041;-62
2022/03/09 05:42:04;;;;;;;13.90;8.47;;;;;;;1.97;48.39;101343.53;4179468;28;20414;-61
2022/03/09 05:44:07;;;;;;;14.45;9.32;;;;;;;1.97;48.50;101343.53;4179569;28;20033;-61
2022/03/09 05:46:11;;;;;;;13.80;8.43;;;;;;;1.97;48.85;101342.63;4162577;28;20535;-61
2022/03/09 05:48:14;;;;;;;12.13;8.65;;;;;;;1.94;48.85;101348.44;4182606;28;20033;-61
2022/03/09 05:50:18;;;;;;;16.80;8.88;;;;;;;1.78;49.23;101353.38;4183365;28;20041;-61
2022/03/09 05:52:21;;;;;;;15.48;8.55;;;;;;;1.74;49.70;101357.44;4182419;28;20041;-61
2022/03/09 05:54:24;;;;;;;13.70;8.90;;;;;;;1.69;49.91;101354.56;4183321;28;20048;-61
2022/03/09 05:56:28;;;;;;;16.52;9.90;;;;;;;1.76;49.64;101368.66;4183464;28;20047;-61
2022/03/09 05:58:30;;;;;;;16.50;8.73;;;;;;;1.62;50.44;101367.78;4183064;28;20398;-61
2022/03/09 06:00:34;;;;;;;14.80;9.32;;;;;;;1.53;50.60;101372.28;4182740;28;20072;-61
2022/03/09 06:02:37;;;;;;;19.83;9.65;;;;;;;1.47;50.59;101388.16;4182376;28;20051;-61
2022/03/09 06:04:40;;;;;;;14.52;8.45;;;;;;;1.52;51.44;101386.78;4166811;28;20106;-61
2022/03/09 06:06:43;;;;;;;15.73;9.63;;;;;;;1.54;51.74;101392.03;4179028;28;20383;-61
2022/03/09 06:08:45;;;;;;;17.75;10.55;;;;;;;1.56;51.99;101390.44;4182538;28;20045;-61
2022/03/09 06:10:48;;;;;;;15.18;9.90;;;;;;;1.56;52.55;101398.13;4157621;28;20818;-61
2022/03/09 06:12:52;;;;;;;17.92;8.95;;;;;;;1.58;52.49;101394.00;4182612;28;20095;-61
2022/03/09 06:14:56;;;;;;;19.58;9.73;;;;;;;1.56;52.76;101391.34;4165166;28;20037;-61
2022/03/09 06:16:58;;;;;;;15.50;10.02;;;;;;;1.56;53.43;101399.03;4181842;28;20045;-61
2022/03/09 06:19:01;;;;;;;13.88;9.23;;;;;;;1.54;54.00;101404.84;4182788;28;20519;-62
2022/03/09 06:21:04;;;;;;;25.15;10.68;;;;;;;1.49;54.50;101401.97;4183208;28;20045;-61
2022/03/09 06:23:07;;;;;;;18.95;10.15;;;;;;;1.41;54.76;101405.69;4182000;28;20033;-61
2022/03/09 06:25:14;;;;;;;19.35;9.65;;;;;;;1.48;54.31;101409.56;4182560;28;20045;-61
2022/03/09 06:27:17;;;;;;;24.55;9.70;;;;;;;1.45;55.34;101409.34;4182339;28;20449;-62
2022/03/09 06:29:21;;;;;;;18.92;9.57;;;;;;;1.50;55.31;101413.09;4178223;28;20037;-61
2022/03/09 06:31:24;;;;;;;15.95;8.88;;;;;;;1.45;56.01;101404.22;4173454;28;20049;-62
2022/03/09 06:33:27;;;;;;;16.90;9.60;;;;;;;1.38;56.63;101411.50;4174692;28;20093;-61
2022/03/09 06:35:31;;;;;;;24.23;10.10;;;;;;;1.37;56.24;101411.38;4181145;28;20053;-61
2022/03/09 06:37:34;;;;;;;19.02;10.05;;;;;;;1.29;56.68;101405.75;4179861;28;20033;-61
2022/03/09 06:39:37;;;;;;;15.38;9.75;;;;;;;1.31;56.69;101409.31;4180081;28;20045;-61
2022/03/09 06:41:40;;;;;;;25.38;10.48;;;;;;;1.27;56.97;101404.78;4179816;28;20037;-61
2022/03/09 06:43:43;;;;;;;32.10;10.32;;;;;;;1.22;56.82;101401.00;4181299;28;20166;-61
2022/03/09 06:45:47;;;;;;;27.02;10.30;;;;;;;1.24;56.55;101403.66;4163568;28;20096;-61
2022/03/09 06:47:50;;;;;;;26.27;10.77;;;;;;;1.26;56.56;101397.00;4180754;28;20040;-61
2022/03/09 06:49:53;;;;;;;36.03;10.55;;;;;;;1.36;55.87;101400.25;4180816;28;20103;-61
2022/03/09 06:51:55;;;;;;;52.30;15.32;;;;;;;1.45;56.19;101405.13;4181289;28;20036;-61
2022/03/09 06:53:58;;;;;;;48.40;11.68;;;;;;;1.51;55.50;101405.50;4180720;28;20494;-61
2022/03/09 06:56:01;;;;;;;29.65;10.60;;;;;;;1.39;54.93;101409.84;4181446;28;20083;-62
2022/03/09 06:58:05;;;;;;;27.35;11.38;;;;;;;1.28;55.41;101421.03;4181264;28;20127;-61
2022/03/09 07:00:11;;;;;;;27.75;12.32;;;;;;;1.24;54.57;101419.91;4183858;28;20048;-62
2022/03/09 07:02:15;;;;;;;23.42;10.50;;;;;;;1.39;55.58;101425.22;4174546;28;20037;-61
2022/03/09 07:04:18;;;;;;;22.27;10.65;;;;;;;1.56;54.45;101422.09;4176583;28;20036;-61
2022/03/09 07:06:21;;;;;;;24.10;11.10;;;;;;;1.71;54.72;101427.34;4175344;28;20050;-61
2022/03/09 07:08:23;;;;;;;30.35;11.15;;;;;;;1.67;53.38;101429.59;4176594;28;20087;-61
2022/03/09 07:10:27;;;;;;;28.13;11.32;;;;;;;1.65;52.73;101434.63;4170344;28;20146;-62
2022/03/09 07:12:30;;;;;;;19.15;10.07;;;;;;;1.60;51.74;101430.84;4165844;28;20424;-61
2022/03/09 07:14:33;;;;;;;19.42;9.70;;;;;;;1.71;52.07;101426.47;4175705;28;20049;-62
2022/03/09 07:16:35;;;;;;;26.05;10.02;;;;;;;1.81;51.59;101425.34;4176456;28;20279;-61
2022/03/09 07:18:39;;;;;;;16.83;8.98;;;;;;;1.82;50.88;101424.56;4171605;28;20485;-61
2022/03/09 07:20:42;;;;;;;17.37;9.03;;;;;;;1.92;50.55;101425.25;4178896;28;20036;-60
2022/03/09 07:22:45;;;;;;;19.27;10.48;;;;;;;1.95;49.83;101427.16;4179098;28;20330;-61
2022/03/09 07:24:48;;;;;;;18.67;9.00;;;;;;;2.00;49.87;101432.56;4184485;28;20045;-61
2022/03/09 07:26:51;;;;;;;15.02;9.63;;;;;;;2.08;49.28;101431.38;4175545;28;20053;-61
2022/03/09 07:28:54;;;;;;;14.70;8.65;;;;;;;2.11;49.17;101443.53;4166784;28;20100;-61
2022/03/09 07:30:57;;;;;;;14.80;8.23;;;;;;;2.05;48.91;101442.34;4186583;28;20095;-60
2022/03/09 07:33:00;;;;;;;18.02;9.38;;;;;;;2.09;48.98;101441.75;4172714;28;20403;-60
2022/03/09 07:35:05;;;;;;;16.95;9.85;;;;;;;2.22;48.77;101442.50;4161449;28;20388;-61
2022/03/09 07:37:07;;;;;;;;;;;;;;;2.18;48.48;101453.41;4173336;28;20041;-61
2022/03/09 07:39:10;;;;;;;15.40;8.70;;;;;;;2.09;48.83;101452.00;4165855;28;20283;-61
2022/03/09 07:41:16;;;;;;;15.20;9.25;;;;;;;2.22;48.40;101448.56;4167213;28;20041;-61
2022/03/09 07:43:20;;;;;;;20.75;10.90;;;;;;;2.43;48.42;101464.41;4176027;28;20037;-61
2022/03/09 07:45:23;;;;;;;18.55;9.60;;;;;;;2.53;48.73;101463.31;4179663;28;20040;-61
2022/03/09 07:47:25;;;;;;;21.67;9.75;;;;;;;2.57;48.47;101474.66;4161690;28;20498;-61
2022/03/09 07:49:28;;;;;;;17.60;10.43;;;;;;;2.52;47.80;101463.22;4185356;28;20399;-61
2022/03/09 07:51:32;;;;;;;22.88;11.63;;;;;;;2.61;47.47;101469.84;4179158;28;20115;-61
2022/03/09 07:53:42;;;;;;;16.45;10.05;;;;;;;2.63;47.37;101475.06;4172366;28;20044;-61
2022/03/09 07:55:45;;;;;;;18.17;9.77;;;;;;;2.56;47.14;101475.47;4173914;28;20049;-61
2022/03/09 07:57:48;;;;;;;12.70;8.65;;;;;;;2.57;47.01;101474.66;4171813;28;20049;-61
2022/03/09 07:59:51;;;;;;;15.30;8.82;;;;;;;2.62;47.19;101483.56;4177759;28;20570;-61
2022/03/09 08:01:54;;;;;;;13.48;9.10;;;;;;;2.66;46.50;101476.91;4169709;28;20095;-61
2022/03/09 08:03:56;;;;;;;13.48;7.75;;;;;;;2.72;47.02;101480.78;4173367;28;20120;-61
2022/03/09 08:05:59;;;;;;;14.45;8.93;;;;;;;2.75;46.97;101486.09;4171053;28;20122;-61
2022/03/09 08:08:05;;;;;;;19.17;9.55;;;;;;;2.79;46.56;101490.63;4175125;28;20056;-61
2022/03/09 08:10:09;;;;;;;17.42;10.02;;;;;;;2.94;46.66;101484.66;4173878;28;20053;-61
2022/03/09 08:12:12;;;;;;;15.25;8.93;;;;;;;2.92;46.48;101486.25;4159279;28;20089;-61
2022/03/09 08:14:16;;;;;;;12.38;8.35;;;;;;;2.95;46.44;101476.19;4165331;28;20453;-61
2022/03/09 08:16:19;;;;;;;13.77;8.60;;;;;;;3.05;46.91;101478.53;4172759;28;20553;-61
2022/03/09 08:18:21;;;;;;;15.02;8.65;;;;;;;3.20;46.10;101490.50;4175948;28;20099;-61
2022/03/09 08:20:24;;;;;;;14.13;8.60;;;;;;;3.35;46.10;101477.72;4176699;28;20048;-61
2022/03/09 08:22:27;;;;;;;16.05;8.45;;;;;;;3.36;46.40;101476.88;4159261;28;20034;-61
2022/03/09 08:24:32;;;;;;;14.52;8.82;;;;;;;3.36;46.26;101474.31;4167930;28;20041;-61
2022/03/09 08:26:37;;;;;;;16.55;9.20;;;;;;;3.46;45.77;101477.53;4173192;28;20417;-61
2022/03/09 08:28:40;;;;;;;16.27;8.88;;;;;;;3.58;45.59;101476.50;4164996;28;20041;-61
2022/03/09 08:30:43;;;;;;;13.00;8.45;;;;;;;3.68;46.52;101478.81;4163901;28;20041;-61
2022/03/09 08:32:46;;;;;;;17.17;9.25;;;;;;;3.77;46.21;101475.91;4172040;28;20059;-60
2022/03/09 08:34:49;;;;;;;19.17;9.73;;;;;;;3.74;46.23;101476.59;4166593;28;20171;-61
2022/03/09 08:36:52;;;;;;;13.80;8.73;;;;;;;3.79;45.06;101475.16;4167392;28;20045;-61
2022/03/09 08:38:55;;;;;;;15.27;9.02;;;;;;;3.91;45.04;101481.81;4172225;28;20275;-60
2022/03/09 08:41:00;;;;;;;16.92;10.18;;;;;;;3.98;45.28;101476.22;4172806;28;20056;-60
2022/03/09 08:43:03;;;;;;;15.10;8.98;;;;;;;4.08;44.73;101481.09;4170789;28;20498;-61
2022/03/09 08:45:06;;;;;;;15.65;9.18;;;;;;;4.12;45.34;101477.03;4174808;28;20458;-61
2022/03/09 08:47:10;;;;;;;14.30;9.73;;;;;;;4.18;44.17;101479.94;4168397;28;20135;-61
2022/03/09 08:49:14;;;;;;;14.40;8.52;;;;;;;4.29;44.53;101468.59;4166779;28;20071;-61
2022/03/09 08:51:20;;;;;;;12.65;7.97;;;;;;;4.39;44.57;101474.22;4165970;28;20037;-61
2022/03/09 08:53:23;;;;;;;12.00;7.85;;;;;;;4.47;43.96;101468.69;4172866;28;20099;-61
2022/03/09 08:55:26;;;;;;;16.88;8.50;;;;;;;4.65;43.60;101462.78;4170498;28;20040;-61
2022/03/09 08:57:31;;;;;;;14.52;8.88;;;;;;;4.99;41.14;101459.44;4174538;28;20041;-61
2022/03/09 08:59:34;;;;;;;14.25;7.82;;;;;;;4.87;42.46;101476.00;4173452;28;20465;-61
2022/03/09 09:01:37;;;;;;;13.38;8.07;;;;;;;4.86;42.66;101471.69;4170028;28;20495;-61
2022/03/09 09:03:52;;;;;;;;;;;;;;;4.80;43.03;101481.63;4163792;28;20140;-61
2022/03/09 09:05:55;;;;;;;14.88;8.88;;;;;;;4.92;42.54;101472.78;4167563;28;20260;-61
2022/03/09 09:07:59;;;;;;;17.25;8.60;;;;;;;5.19;42.34;101471.69;4163661;28;20064;-61
2022/03/09 09:10:08;;;;;;;15.15;8.45;;;;;;;5.31;41.78;101467.97;4166576;28;20485;-61
2022/03/09 09:12:11;;;;;;;18.50;9.00;;;;;;;5.25;42.12;101474.56;4167358;28;20048;-61
2022/03/09 09:14:15;;;;;;;14.70;7.05;;;;;;;5.33;42.51;101479.25;4167111;28;20057;-61
2022/03/09 09:16:22;;;;;;;13.15;8.02;;;;;;;5.42;42.11;101462.56;4173854;28;20047;-61
2022/03/09 09:18:25;;;;;;;10.90;7.00;;;;;;;5.46;41.84;101470.44;4176336;28;20046;-61
2022/03/09 09:20:28;;;;;;;16.98;9.20;;;;;;;5.50;41.40;101475.84;4173273;28;20040;-61
2022/03/09 09:22:31;;;;;;;18.05;8.82;;;;;;;5.44;41.13;101472.09;4163554;28;20052;-61
2022/03/09 09:24:54;;;;;;;11.48;8.20;;;;;;;5.51;41.12;101469.00;4171938;28;20130;-61
2022/03/09 09:26:57;;;;;;;12.63;7.70;;;;;;;5.62;40.54;101464.38;4174819;28;20048;-61
2022/03/09 09:29:04;;;;;;;15.23;7.57;;;;;;;5.76;41.07;101455.66;4175635;28;20049;-61
2022/03/09 09:31:08;;;;;;;15.40;7.03;;;;;;;5.90;40.84;101444.31;4169791;28;20462;-62
2022/03/09 09:33:11;;;;;;;13.52;7.43;;;;;;;6.03;40.80;101445.84;4166216;28;20459;-61
2022/03/09 09:35:15;;;;;;;14.48;8.45;;;;;;;6.10;40.18;101447.00;4174787;28;20041;-61